sensor_id;sensor_type;location;lat;lon;timestamp;pressure;altitude;pressure_sealevel;temperature;humidity
48015;BME280;33780;51.034;7.120;2023-01-28T00:00:07;101908.09;;;4.15;69.79
48015;BME280;33780;51.034;7.120;2023-01-28T00:02:34;101909.13;;;4.11;69.87
48015;BME280;33780;51.034;7.120;2023-01-28T00:05:00;101912.88;;;4.05;69.67
48015;BME280;33780;51.034;7.120;2023-01-28T00:07:26;101907.72;;;4.02;69.94
48015;BME280;33780;51.034;7.120;2023-01-28T00:09:51;101906.13;;;3.98;69.77
48015;BME280;33780;51.034;7.120;2023-01-28T00:12:17;101900.97;;;3.93;69.73
48015;BME280;33780;51.034;7.120;2023-01-28T00:14:42;101909.09;;;3.89;70.05
48015;BME280;33780;51.034;7.120;2023-01-28T00:17:08;101904.88;;;3.85;69.76
48015;BME280;33780;51.034;7.120;2023-01-28T00:19:34;101902.34;;;3.82;69.92
48015;BME280;33780;51.034;7.120;2023-01-28T00:21:59;101897.31;;;3.74;69.69
48015;BME280;33780;51.034;7.120;2023-01-28T00:24:25;101897.50;;;3.70;69.24
48015;BME280;33780;51.034;7.120;2023-01-28T00:26:50;101895.91;;;3.66;69.86
48015;BME280;33780;51.034;7.120;2023-01-28T00:29:15;101896.09;;;3.61;69.82
48015;BME280;33780;51.034;7.120;2023-01-28T00:31:41;101891.81;;;3.57;69.66
48015;BME280;33780;51.034;7.120;2023-01-28T00:34:06;101893.78;;;3.52;69.31
48015;BME280;33780;51.034;7.120;2023-01-28T00:36:32;101887.81;;;3.47;69.42
48015;BME280;33780;51.034;7.120;2023-01-28T00:38:58;101887.91;;;3.44;69.50
48015;BME280;33780;51.034;7.120;2023-01-28T00:41:28;101891.56;;;3.40;69.74
48015;BME280;33780;51.034;7.120;2023-01-28T00:43:53;101889.00;;;3.38;69.67
48015;BME280;33780;51.034;7.120;2023-01-28T00:46:20;101891.69;;;3.37;69.54
48015;BME280;33780;51.034;7.120;2023-01-28T00:48:46;101904.19;;;3.33;69.51
48015;BME280;33780;51.034;7.120;2023-01-28T00:51:13;101907.81;;;3.30;69.60
48015;BME280;33780;51.034;7.120;2023-01-28T00:53:39;101916.66;;;3.29;69.89
48015;BME280;33780;51.034;7.120;2023-01-28T00:56:06;101921.09;;;3.29;69.87
48015;BME280;33780;51.034;7.120;2023-01-28T00:58:35;101916.72;;;3.28;70.21
48015;BME280;33780;51.034;7.120;2023-01-28T01:03:39;101900.97;;;3.25;69.68
48015;BME280;33780;51.034;7.120;2023-01-28T01:06:05;101905.47;;;3.21;69.66
48015;BME280;33780;51.034;7.120;2023-01-28T01:08:31;101894.16;;;3.18;69.86
48015;BME280;33780;51.034;7.120;2023-01-28T01:11:03;101895.19;;;3.14;69.77
48015;BME280;33780;51.034;7.120;2023-01-28T01:13:29;101893.47;;;3.13;69.63
48015;BME280;33780;51.034;7.120;2023-01-28T01:16:12;101898.06;;;3.08;69.86
48015;BME280;33780;51.034;7.120;2023-01-28T01:18:38;101892.84;;;3.04;69.79
48015;BME280;33780;51.034;7.120;2023-01-28T01:21:26;101905.34;;;3.01;69.61
48015;BME280;33780;51.034;7.120;2023-01-28T01:23:52;101905.44;;;2.98;69.72
48015;BME280;33780;51.034;7.120;2023-01-28T01:26:17;101908.19;;;2.95;69.66
48015;BME280;33780;51.034;7.120;2023-01-28T01:28:43;101914.47;;;2.92;69.70
48015;BME280;33780;51.034;7.120;2023-01-28T01:31:14;101911.03;;;2.90;69.52
48015;BME280;33780;51.034;7.120;2023-01-28T01:33:40;101920.78;;;2.88;69.51
48015;BME280;33780;51.034;7.120;2023-01-28T01:36:06;101913.00;;;2.84;69.59
48015;BME280;33780;51.034;7.120;2023-01-28T01:38:35;101913.09;;;2.81;69.89
48015;BME280;33780;51.034;7.120;2023-01-28T01:41:02;101904.41;;;2.77;69.96
48015;BME280;33780;51.034;7.120;2023-01-28T01:43:50;101909.88;;;2.72;69.50
48015;BME280;33780;51.034;7.120;2023-01-28T01:48:56;101908.22;;;2.68;70.12
48015;BME280;33780;51.034;7.120;2023-01-28T01:51:29;101908.28;;;2.67;69.87
48015;BME280;33780;51.034;7.120;2023-01-28T01:53:57;101909.19;;;2.66;69.82
48015;BME280;33780;51.034;7.120;2023-01-28T01:56:28;101911.09;;;2.62;69.74
48015;BME280;33780;51.034;7.120;2023-01-28T01:58:55;101918.16;;;2.62;70.19
48015;BME280;33780;51.034;7.120;2023-01-28T02:01:25;101916.47;;;2.59;69.81
48015;BME280;33780;51.034;7.120;2023-01-28T02:04:03;101920.09;;;2.57;70.09
48015;BME280;33780;51.034;7.120;2023-01-28T02:06:31;101922.72;;;2.57;69.63
48015;BME280;33780;51.034;7.120;2023-01-28T02:08:57;101917.56;;;2.54;69.98
48015;BME280;33780;51.034;7.120;2023-01-28T02:11:29;101920.28;;;2.51;69.62
48015;BME280;33780;51.034;7.120;2023-01-28T02:13:57;101912.47;;;2.48;70.02
48015;BME280;33780;51.034;7.120;2023-01-28T02:16:24;101922.16;;;2.47;69.86
48015;BME280;33780;51.034;7.120;2023-01-28T02:18:49;101918.66;;;2.47;69.78
48015;BME280;33780;51.034;7.120;2023-01-28T02:26:56;101913.63;;;2.39;69.86
48015;BME280;33780;51.034;7.120;2023-01-28T02:29:41;101913.75;;;2.36;69.50
48015;BME280;33780;51.034;7.120;2023-01-28T02:32:18;101912.94;;;2.34;69.63
48015;BME280;33780;51.034;7.120;2023-01-28T02:37:36;101914.03;;;2.27;69.60
48015;BME280;33780;51.034;7.120;2023-01-28T02:40:10;101924.69;;;2.24;69.50
48015;BME280;33780;51.034;7.120;2023-01-28T02:42:37;101924.75;;;2.22;69.64
48015;BME280;33780;51.034;7.120;2023-01-28T02:45:26;101923.94;;;2.20;69.74
48015;BME280;33780;51.034;7.120;2023-01-28T02:48:12;101923.94;;;2.20;69.81
48015;BME280;33780;51.034;7.120;2023-01-28T02:50:48;101930.13;;;2.19;69.71
48015;BME280;33780;51.034;7.120;2023-01-28T02:53:29;101938.97;;;2.18;69.54
48015;BME280;33780;51.034;7.120;2023-01-28T02:56:29;101943.50;;;2.13;69.66
48015;BME280;33780;51.034;7.120;2023-01-28T02:59:10;101943.56;;;2.11;69.86
48015;BME280;33780;51.034;7.120;2023-01-28T03:02:01;101947.16;;;2.09;69.89
48015;BME280;33780;51.034;7.120;2023-01-28T03:04:32;101955.06;;;2.09;69.93
48015;BME280;33780;51.034;7.120;2023-01-28T03:07:02;101949.84;;;2.07;69.96
48015;BME280;33780;51.034;7.120;2023-01-28T03:09:30;101953.41;;;2.06;69.62
48015;BME280;33780;51.034;7.120;2023-01-28T03:14:49;101958.84;;;2.02;69.86
48015;BME280;33780;51.034;7.120;2023-01-28T03:17:42;101951.91;;;1.98;69.74
48015;BME280;33780;51.034;7.120;2023-01-28T03:20:34;101957.22;;;1.96;69.68
48015;BME280;33780;51.034;7.120;2023-01-28T03:23:23;101951.13;;;1.94;69.47
48015;BME280;33780;51.034;7.120;2023-01-28T03:26:12;101962.66;;;1.92;69.82
48015;BME280;33780;51.034;7.120;2023-01-28T03:29:04;101951.28;;;1.90;69.27
48015;BME280;33780;51.034;7.120;2023-01-28T03:31:50;101953.09;;;1.88;69.74
48015;BME280;33780;51.034;7.120;2023-01-28T03:34:34;101955.78;;;1.86;69.88
48015;BME280;33780;51.034;7.120;2023-01-28T03:37:18;101958.47;;;1.85;70.05
48015;BME280;33780;51.034;7.120;2023-01-28T03:39:43;101955.88;;;1.83;69.59
48015;BME280;33780;51.034;7.120;2023-01-28T03:42:11;101955.06;;;1.81;69.51
48015;BME280;33780;51.034;7.120;2023-01-28T03:44:38;101958.63;;;1.78;69.25
48015;BME280;33780;51.034;7.120;2023-01-28T03:47:21;101957.81;;;1.76;69.82
48015;BME280;33780;51.034;7.120;2023-01-28T03:49:49;101959.63;;;1.74;69.48
48015;BME280;33780;51.034;7.120;2023-01-28T03:52:20;101955.28;;;1.73;70.09
48015;BME280;33780;51.034;7.120;2023-01-28T03:54:46;101959.69;;;1.73;69.73
48015;BME280;33780;51.034;7.120;2023-01-28T03:57:16;101966.78;;;1.71;69.80
48015;BME280;33780;51.034;7.120;2023-01-28T03:59:43;101965.06;;;1.70;69.69
48015;BME280;33780;51.034;7.120;2023-01-28T04:02:09;101965.09;;;1.68;69.31
48015;BME280;33780;51.034;7.120;2023-01-28T04:04:39;101976.56;;;1.67;69.67
48015;BME280;33780;51.034;7.120;2023-01-28T04:07:05;101980.03;;;1.69;69.81
48015;BME280;33780;51.034;7.120;2023-01-28T04:09:33;101976.56;;;1.67;69.33
48015;BME280;33780;51.034;7.120;2023-01-28T04:11:59;101977.47;;;1.66;69.62
48015;BME280;33780;51.034;7.120;2023-01-28T04:14:25;101986.34;;;1.64;69.58
48015;BME280;33780;51.034;7.120;2023-01-28T04:16:50;101990.81;;;1.60;69.42
48015;BME280;33780;51.034;7.120;2023-01-28T04:19:16;101985.59;;;1.59;69.70
48015;BME280;33780;51.034;7.120;2023-01-28T04:21:41;101990.00;;;1.58;70.19
48015;BME280;33780;51.034;7.120;2023-01-28T04:24:07;101990.88;;;1.59;69.98
48015;BME280;33780;51.034;7.120;2023-01-28T04:26:32;101993.56;;;1.57;69.57
48015;BME280;33780;51.034;7.120;2023-01-28T04:28:57;101998.91;;;1.54;70.01
48015;BME280;33780;51.034;7.120;2023-01-28T04:31:23;102001.59;;;1.52;69.86
48015;BME280;33780;51.034;7.120;2023-01-28T04:33:48;102004.25;;;1.52;69.94
48015;BME280;33780;51.034;7.120;2023-01-28T04:36:14;102004.34;;;1.49;69.78
48015;BME280;33780;51.034;7.120;2023-01-28T04:38:39;102012.34;;;1.46;69.57
48015;BME280;33780;51.034;7.120;2023-01-28T04:41:05;102008.00;;;1.44;69.91
48015;BME280;33780;51.034;7.120;2023-01-28T04:43:30;102004.47;;;1.43;69.70
48015;BME280;33780;51.034;7.120;2023-01-28T04:45:55;102014.22;;;1.41;69.25
48015;BME280;33780;51.034;7.120;2023-01-28T04:48:20;102024.81;;;1.40;69.72
48015;BME280;33780;51.034;7.120;2023-01-28T04:50:46;102018.75;;;1.36;69.22
48015;BME280;33780;51.034;7.120;2023-01-28T04:53:11;102015.28;;;1.34;69.93
48015;BME280;33780;51.034;7.120;2023-01-28T04:55:36;102030.22;;;1.35;69.66
48015;BME280;33780;51.034;7.120;2023-01-28T04:58:02;102024.06;;;1.35;69.40
48015;BME280;33780;51.034;7.120;2023-01-28T05:00:28;102026.72;;;1.35;69.66
48015;BME280;33780;51.034;7.120;2023-01-28T05:02:53;102028.47;;;1.34;70.39
48015;BME280;33780;51.034;7.120;2023-01-28T05:05:18;102023.22;;;1.34;70.28
48015;BME280;33780;51.034;7.120;2023-01-28T05:07:49;102019.66;;;1.35;70.47
48015;BME280;33780;51.034;7.120;2023-01-28T05:10:14;102025.75;;;1.37;70.74
48015;BME280;33780;51.034;7.120;2023-01-28T05:12:43;102022.22;;;1.38;70.67
48015;BME280;33780;51.034;7.120;2023-01-28T05:15:08;102026.56;;;1.39;70.62
48015;BME280;33780;51.034;7.120;2023-01-28T05:17:33;102023.91;;;1.41;71.10
48015;BME280;33780;51.034;7.120;2023-01-28T05:19:59;102021.22;;;1.42;71.21
48015;BME280;33780;51.034;7.120;2023-01-28T05:22:24;102020.28;;;1.45;71.34
48015;BME280;33780;51.034;7.120;2023-01-28T05:24:49;102032.56;;;1.46;71.09
48015;BME280;33780;51.034;7.120;2023-01-28T05:27:14;102021.97;;;1.47;71.59
48015;BME280;33780;51.034;7.120;2023-01-28T05:29:40;102021.88;;;1.50;70.90
48015;BME280;33780;51.034;7.120;2023-01-28T05:32:05;102025.34;;;1.52;71.28
48015;BME280;33780;51.034;7.120;2023-01-28T05:34:30;102025.25;;;1.56;71.57
48015;BME280;33780;51.034;7.120;2023-01-28T05:36:56;102019.06;;;1.57;71.66
48015;BME280;33780;51.034;7.120;2023-01-28T05:39:21;102017.25;;;1.59;71.62
48015;BME280;33780;51.034;7.120;2023-01-28T05:41:46;102014.56;;;1.60;71.78
48015;BME280;33780;51.034;7.120;2023-01-28T05:44:11;102025.06;;;1.63;71.91
48015;BME280;33780;51.034;7.120;2023-01-28T05:46:37;102022.34;;;1.66;71.83
48015;BME280;33780;51.034;7.120;2023-01-28T05:49:02;102017.00;;;1.68;71.87
48015;BME280;33780;51.034;7.120;2023-01-28T05:51:27;102018.69;;;1.70;71.67
48015;BME280;33780;51.034;7.120;2023-01-28T05:53:53;102031.88;;;1.70;71.87
48015;BME280;33780;51.034;7.120;2023-01-28T05:56:18;102024.78;;;1.72;72.03
48015;BME280;33780;51.034;7.120;2023-01-28T05:58:43;102029.16;;;1.73;72.14
48015;BME280;33780;51.034;7.120;2023-01-28T06:01:22;102038.81;;;1.74;72.70
48015;BME280;33780;51.034;7.120;2023-01-28T06:03:53;102046.66;;;1.76;72.50
48015;BME280;33780;51.034;7.120;2023-01-28T06:06:21;102051.91;;;1.77;72.73
48015;BME280;33780;51.034;7.120;2023-01-28T06:08:47;102043.06;;;1.78;73.02
48015;BME280;33780;51.034;7.120;2023-01-28T06:11:13;102048.34;;;1.80;72.43
48015;BME280;33780;51.034;7.120;2023-01-28T06:13:42;102048.34;;;1.80;72.93
48015;BME280;33780;51.034;7.120;2023-01-28T06:16:11;102055.34;;;1.81;72.32
48015;BME280;33780;51.034;7.120;2023-01-28T06:18:36;102049.16;;;1.82;72.97
48015;BME280;33780;51.034;7.120;2023-01-28T06:21:01;102046.53;;;1.82;72.81
48015;BME280;33780;51.034;7.120;2023-01-28T06:23:26;102045.63;;;1.83;73.15
48015;BME280;33780;51.034;7.120;2023-01-28T06:25:53;102047.34;;;1.84;73.21
48015;BME280;33780;51.034;7.120;2023-01-28T06:28:36;102058.81;;;1.83;73.13
48015;BME280;33780;51.034;7.120;2023-01-28T06:31:07;102057.03;;;1.84;73.20
48015;BME280;33780;51.034;7.120;2023-01-28T06:33:46;102061.41;;;1.85;73.14
48015;BME280;33780;51.034;7.120;2023-01-28T06:36:19;102062.25;;;1.85;73.54
48015;BME280;33780;51.034;7.120;2023-01-28T06:38:51;102061.34;;;1.86;73.41
48015;BME280;33780;51.034;7.120;2023-01-28T06:41:22;102056.94;;;1.87;73.53
48015;BME280;33780;51.034;7.120;2023-01-28T06:43:54;102062.19;;;1.88;73.09
48015;BME280;33780;51.034;7.120;2023-01-28T06:46:19;102055.06;;;1.90;73.14
48015;BME280;33780;51.034;7.120;2023-01-28T06:48:44;102057.72;;;1.90;73.41
48015;BME280;33780;51.034;7.120;2023-01-28T06:51:10;102050.66;;;1.91;73.61
48015;BME280;33780;51.034;7.120;2023-01-28T06:53:35;102052.38;;;1.92;73.79
48015;BME280;33780;51.034;7.120;2023-01-28T06:56:00;102047.09;;;1.92;73.56
48015;BME280;33780;51.034;7.120;2023-01-28T06:58:26;102047.09;;;1.92;73.53
48015;BME280;33780;51.034;7.120;2023-01-28T07:00:52;102057.63;;;1.93;73.98
48015;BME280;33780;51.034;7.120;2023-01-28T07:03:17;102057.63;;;1.93;74.15
48015;BME280;33780;51.034;7.120;2023-01-28T07:05:42;102064.59;;;1.96;74.38
48015;BME280;33780;51.034;7.120;2023-01-28T07:08:07;102064.59;;;1.96;73.57
48015;BME280;33780;51.034;7.120;2023-01-28T07:10:33;102061.03;;;1.97;73.91
48015;BME280;33780;51.034;7.120;2023-01-28T07:12:58;102072.44;;;1.99;73.88
48015;BME280;33780;51.034;7.120;2023-01-28T07:15:23;102071.53;;;2.00;74.20
48015;BME280;33780;51.034;7.120;2023-01-28T07:17:48;102073.25;;;2.01;73.78
48015;BME280;33780;51.034;7.120;2023-01-28T07:20:14;102072.34;;;2.02;74.02
48015;BME280;33780;51.034;7.120;2023-01-28T07:22:41;102074.94;;;2.03;74.27
48015;BME280;33780;51.034;7.120;2023-01-28T07:25:09;102076.66;;;2.04;74.27
48015;BME280;33780;51.034;7.120;2023-01-28T07:27:35;102073.97;;;2.06;74.24
48015;BME280;33780;51.034;7.120;2023-01-28T07:32:59;102067.84;;;2.05;74.26
48015;BME280;33780;51.034;7.120;2023-01-28T07:35:27;102069.53;;;2.08;74.34
48015;BME280;33780;51.034;7.120;2023-01-28T07:37:55;102075.66;;;2.08;74.11
48015;BME280;33780;51.034;7.120;2023-01-28T07:40:21;102066.84;;;2.09;74.13
48015;BME280;33780;51.034;7.120;2023-01-28T07:42:47;102065.00;;;2.11;73.75
48015;BME280;33780;51.034;7.120;2023-01-28T07:45:13;102064.09;;;2.12;74.14
48015;BME280;33780;51.034;7.120;2023-01-28T07:47:39;102054.34;;;2.15;73.70
48015;BME280;33780;51.034;7.120;2023-01-28T07:50:04;102058.78;;;2.14;73.33
48015;BME280;33780;51.034;7.120;2023-01-28T07:52:30;102067.53;;;2.16;73.59
48015;BME280;33780;51.034;7.120;2023-01-28T07:54:55;102071.88;;;2.19;73.27
48015;BME280;33780;51.034;7.120;2023-01-28T07:57:20;102070.91;;;2.21;73.49
48015;BME280;33780;51.034;7.120;2023-01-28T07:59:49;102070.84;;;2.23;73.76
48015;BME280;33780;51.034;7.120;2023-01-28T08:02:27;102074.34;;;2.23;73.81
48015;BME280;33780;51.034;7.120;2023-01-28T08:05:01;102075.19;;;2.25;74.09
48015;BME280;33780;51.034;7.120;2023-01-28T08:07:32;102071.63;;;2.26;73.47
48015;BME280;33780;51.034;7.120;2023-01-28T08:10:03;102079.50;;;2.28;72.70
48015;BME280;33780;51.034;7.120;2023-01-28T08:12:38;102089.16;;;2.29;73.33
48015;BME280;33780;51.034;7.120;2023-01-28T08:15:23;102095.28;;;2.29;72.96
48015;BME280;33780;51.034;7.120;2023-01-28T08:18:02;102098.72;;;2.33;73.05
48015;BME280;33780;51.034;7.120;2023-01-28T08:21:00;102103.97;;;2.34;73.29
48015;BME280;33780;51.034;7.120;2023-01-28T08:23:44;102113.63;;;2.35;72.78
48015;BME280;33780;51.034;7.120;2023-01-28T08:26:38;102116.22;;;2.37;72.55
48015;BME280;33780;51.034;7.120;2023-01-28T08:29:19;102111.81;;;2.37;73.05
48015;BME280;33780;51.034;7.120;2023-01-28T08:31:53;102110.84;;;2.40;73.42
48015;BME280;33780;51.034;7.120;2023-01-28T08:34:38;102110.78;;;2.41;72.81
48015;BME280;33780;51.034;7.120;2023-01-28T08:49:05;102123.75;;;2.49;73.16
48015;BME280;33780;51.034;7.120;2023-01-28T08:51:33;102127.22;;;2.51;73.09
48015;BME280;33780;51.034;7.120;2023-01-28T08:54:12;102130.75;;;2.52;72.85
48015;BME280;33780;51.034;7.120;2023-01-28T08:59:57;102132.41;;;2.56;71.86
48015;BME280;33780;51.034;7.120;2023-01-28T09:02:40;102138.50;;;2.58;71.67
48015;BME280;33780;51.034;7.120;2023-01-28T09:05:12;102134.28;;;2.52;68.52
48015;BME280;33780;51.034;7.120;2023-01-28T09:08:30;102138.69;;;2.52;70.29
48015;BME280;33780;51.034;7.120;2023-01-28T09:11:01;102146.63;;;2.52;70.10
48015;BME280;33780;51.034;7.120;2023-01-28T09:13:33;102148.34;;;2.51;69.64
48015;BME280;33780;51.034;7.120;2023-01-28T09:15:58;102147.44;;;2.54;69.62
48015;BME280;33780;51.034;7.120;2023-01-28T09:18:24;102145.59;;;2.56;70.00
48015;BME280;33780;51.034;7.120;2023-01-28T09:21:15;102157.03;;;2.56;69.14
48015;BME280;33780;51.034;7.120;2023-01-28T09:23:50;102165.84;;;2.57;69.84
48015;BME280;33780;51.034;7.120;2023-01-28T09:26:27;102172.78;;;2.59;69.71
48015;BME280;33780;51.034;7.120;2023-01-28T09:29:02;102180.59;;;2.64;69.57
48015;BME280;33780;51.034;7.120;2023-01-28T09:31:36;102184.97;;;2.65;69.31
48015;BME280;33780;51.034;7.120;2023-01-28T09:34:08;102188.66;;;2.59;64.62
48015;BME280;33780;51.034;7.120;2023-01-28T09:36:38;102187.75;;;2.60;67.50
48015;BME280;33780;51.034;7.120;2023-01-28T09:39:04;102188.50;;;2.64;68.15
48015;BME280;33780;51.034;7.120;2023-01-28T09:41:53;102190.19;;;2.66;68.58
48015;BME280;33780;51.034;7.120;2023-01-28T09:47:27;102187.38;;;2.72;68.42
48015;BME280;33780;51.034;7.120;2023-01-28T09:50:06;102192.59;;;2.76;68.48
48015;BME280;33780;51.034;7.120;2023-01-28T09:52:38;102191.63;;;2.78;68.33
48015;BME280;33780;51.034;7.120;2023-01-28T09:55:22;102201.22;;;2.81;68.90
48015;BME280;33780;51.034;7.120;2023-01-28T09:57:53;102194.13;;;2.83;68.52
48015;BME280;33780;51.034;7.120;2023-01-28T10:00:22;102193.16;;;2.85;68.42
48015;BME280;33780;51.034;7.120;2023-01-28T10:14:07;102174.53;;;2.90;66.39
48015;BME280;33780;51.034;7.120;2023-01-28T10:16:44;102191.16;;;2.93;68.24
48015;BME280;33780;51.034;7.120;2023-01-28T10:19:21;102195.53;;;2.94;68.14
48015;BME280;33780;51.034;7.120;2023-01-28T10:22:15;102192.78;;;2.97;67.81
48015;BME280;33780;51.034;7.120;2023-01-28T10:24:54;102181.31;;;2.98;66.35
48015;BME280;33780;51.034;7.120;2023-01-28T10:27:33;102190.06;;;3.00;67.53
48015;BME280;33780;51.034;7.120;2023-01-28T10:30:19;102197.06;;;3.01;66.92
48015;BME280;33780;51.034;7.120;2023-01-28T10:33:32;102189.09;;;3.03;66.72
48015;BME280;33780;51.034;7.120;2023-01-28T10:36:10;102190.00;;;3.02;66.64
48015;BME280;33780;51.034;7.120;2023-01-28T10:38:39;102180.28;;;3.02;67.21
48015;BME280;33780;51.034;7.120;2023-01-28T10:41:10;102180.25;;;3.04;67.29
48015;BME280;33780;51.034;7.120;2023-01-28T10:43:57;102184.72;;;3.02;66.05
48015;BME280;33780;51.034;7.120;2023-01-28T10:46:34;102186.50;;;3.01;66.47
48015;BME280;33780;51.034;7.120;2023-01-28T10:49:21;102180.34;;;3.01;67.05
48015;BME280;33780;51.034;7.120;2023-01-28T10:51:53;102178.56;;;3.01;66.84
48015;BME280;33780;51.034;7.120;2023-01-28T10:54:30;102184.81;;;2.99;66.13
48015;BME280;33780;51.034;7.120;2023-01-28T10:57:01;102199.81;;;2.98;66.38
48015;BME280;33780;51.034;7.120;2023-01-28T10:59:31;102198.03;;;2.99;66.58
48015;BME280;33780;51.034;7.120;2023-01-28T11:02:32;102197.13;;;3.00;66.45
48015;BME280;33780;51.034;7.120;2023-01-28T11:05:04;102175.91;;;3.01;66.16
48015;BME280;33780;51.034;7.120;2023-01-28T11:07:30;102181.09;;;3.04;66.90
48015;BME280;33780;51.034;7.120;2023-01-28T11:09:55;102181.94;;;3.07;67.27
48015;BME280;33780;51.034;7.120;2023-01-28T11:12:26;102188.88;;;3.11;66.85
48015;BME280;33780;51.034;7.120;2023-01-28T11:15:01;102187.91;;;3.13;66.10
48015;BME280;33780;51.034;7.120;2023-01-28T11:17:30;102188.88;;;3.11;63.84
48015;BME280;33780;51.034;7.120;2023-01-28T11:20:09;102190.59;;;3.12;64.92
48015;BME280;33780;51.034;7.120;2023-01-28T11:22:37;102191.47;;;3.12;66.27
48015;BME280;33780;51.034;7.120;2023-01-28T11:25:14;102182.56;;;3.15;65.25
48015;BME280;33780;51.034;7.120;2023-01-28T11:27:50;102179.91;;;3.15;65.16
48015;BME280;33780;51.034;7.120;2023-01-28T11:33:16;102187.91;;;3.13;63.81
48015;BME280;33780;51.034;7.120;2023-01-28T11:36:17;102191.47;;;3.12;64.10
48015;BME280;33780;51.034;7.120;2023-01-28T11:38:54;102193.13;;;3.15;65.61
48015;BME280;33780;51.034;7.120;2023-01-28T11:41:30;102191.31;;;3.17;65.63
48015;BME280;33780;51.034;7.120;2023-01-28T11:43:58;102200.06;;;3.19;64.95
48015;BME280;33780;51.034;7.120;2023-01-28T11:46:44;102192.13;;;3.19;64.74
48015;BME280;33780;51.034;7.120;2023-01-28T11:49:34;102196.59;;;3.17;64.41
48015;BME280;33780;51.034;7.120;2023-01-28T11:52:13;102198.38;;;3.16;64.28
48015;BME280;33780;51.034;7.120;2023-01-28T11:55:10;102203.66;;;3.16;64.60
48015;BME280;33780;51.034;7.120;2023-01-28T12:00:45;102196.59;;;3.17;64.10
48015;BME280;33780;51.034;7.120;2023-01-28T12:03:54;102195.16;;;3.07;59.75
48015;BME280;33780;51.034;7.120;2023-01-28T12:06:36;102192.75;;;2.99;61.85
48015;BME280;33780;51.034;7.120;2023-01-28T12:09:18;102194.56;;;2.97;62.20
48015;BME280;33780;51.034;7.120;2023-01-28T12:14:57;102175.91;;;3.01;61.41
48015;BME280;33780;51.034;7.120;2023-01-28T12:20:29;102174.19;;;3.00;59.98
48015;BME280;33780;51.034;7.120;2023-01-28T12:25:38;102161.72;;;3.04;62.71
48015;BME280;33780;51.034;7.120;2023-01-28T12:28:34;102165.22;;;3.06;61.72
48015;BME280;33780;51.034;7.120;2023-01-28T12:34:36;102177.63;;;3.02;60.92
48015;BME280;33780;51.034;7.120;2023-01-28T12:43:00;102176.59;;;3.08;61.73
48015;BME280;33780;51.034;7.120;2023-01-28T12:45:42;102178.28;;;3.11;61.44
48015;BME280;33780;51.034;7.120;2023-01-28T12:48:39;102170.56;;;3.03;57.23
48015;BME280;33780;51.034;7.120;2023-01-28T12:51:31;102162.75;;;3.00;59.62
48015;BME280;33780;51.034;7.120;2023-01-28T12:54:24;102161.06;;;2.97;58.10
48015;BME280;33780;51.034;7.120;2023-01-28T12:57:15;102148.66;;;2.99;59.23
48015;BME280;33780;51.034;7.120;2023-01-28T13:02:43;102143.84;;;3.12;60.91
48015;BME280;33780;51.034;7.120;2023-01-28T13:05:19;102141.06;;;3.17;60.99
48015;BME280;33780;51.034;7.120;2023-01-28T13:08:03;102137.31;;;3.24;61.47
48015;BME280;33780;51.034;7.120;2023-01-28T13:10:43;102130.94;;;3.29;61.54
48015;BME280;33780;51.034;7.120;2023-01-28T13:13:29;102114.00;;;3.35;60.96
48015;BME280;33780;51.034;7.120;2023-01-28T13:16:01;102109.41;;;3.40;61.14
48015;BME280;33780;51.034;7.120;2023-01-28T13:21:08;102108.25;;;3.49;61.72
48015;BME280;33780;51.034;7.120;2023-01-28T13:23:50;102111.53;;;3.55;62.03
48015;BME280;33780;51.034;7.120;2023-01-28T13:32:33;102062.00;;;3.59;61.50
48015;BME280;33780;51.034;7.120;2023-01-28T13:38:18;102053.06;;;3.63;61.35
48015;BME280;33780;51.034;7.120;2023-01-28T13:40:59;102042.41;;;3.64;61.19
48015;BME280;33780;51.034;7.120;2023-01-28T13:46:06;102064.50;;;3.63;60.38
48015;BME280;33780;51.034;7.120;2023-01-28T13:48:43;102077.75;;;3.63;60.97
48015;BME280;33780;51.034;7.120;2023-01-28T13:51:46;102097.88;;;3.68;60.97
48015;BME280;33780;51.034;7.120;2023-01-28T13:54:20;102096.22;;;3.65;60.41
48015;BME280;33780;51.034;7.120;2023-01-28T13:57:09;102098.84;;;3.65;60.29
48015;BME280;33780;51.034;7.120;2023-01-28T14:09:06;102109.81;;;3.54;60.49
48015;BME280;33780;51.034;7.120;2023-01-28T14:19:56;102139.25;;;3.45;60.06
48015;BME280;33780;51.034;7.120;2023-01-28T14:22:22;102153.50;;;3.41;59.66
48015;BME280;33780;51.034;7.120;2023-01-28T14:24:48;102142.06;;;3.39;59.87
48015;BME280;33780;51.034;7.120;2023-01-28T14:27:21;102145.63;;;3.38;59.71
48015;BME280;33780;51.034;7.120;2023-01-28T14:30:42;102146.50;;;3.39;59.77
48015;BME280;33780;51.034;7.120;2023-01-28T14:33:01;102139.47;;;3.38;60.32
48015;BME280;33780;51.034;7.120;2023-01-28T14:38:37;102147.31;;;3.41;60.63
48015;BME280;33780;51.034;7.120;2023-01-28T14:41:09;102143.78;;;3.42;60.76
48015;BME280;33780;51.034;7.120;2023-01-28T14:43:45;102132.34;;;3.41;60.47
48015;BME280;33780;51.034;7.120;2023-01-28T14:46:31;102132.34;;;3.41;60.60
48015;BME280;33780;51.034;7.120;2023-01-28T14:49:13;102127.94;;;3.40;60.76
48015;BME280;33780;51.034;7.120;2023-01-28T14:52:05;102133.28;;;3.39;60.78
48015;BME280;33780;51.034;7.120;2023-01-28T14:54:45;102135.91;;;3.39;60.65
48015;BME280;33780;51.034;7.120;2023-01-28T14:57:38;102123.59;;;3.38;60.83
48015;BME280;33780;51.034;7.120;2023-01-28T15:00:18;102113.13;;;3.34;60.67
48015;BME280;33780;51.034;7.120;2023-01-28T15:02:44;102111.41;;;3.33;60.91
48015;BME280;33780;51.034;7.120;2023-01-28T15:05:15;102114.09;;;3.32;60.75
48015;BME280;33780;51.034;7.120;2023-01-28T15:07:46;102113.28;;;3.30;61.04
48015;BME280;33780;51.034;7.120;2023-01-28T15:10:20;102105.34;;;3.30;61.13
48015;BME280;33780;51.034;7.120;2023-01-28T15:12:55;102099.25;;;3.28;59.97
48015;BME280;33780;51.034;7.120;2023-01-28T15:15:53;102090.50;;;3.26;60.54
48015;BME280;33780;51.034;7.120;2023-01-28T15:18:40;102083.50;;;3.25;60.69
48015;BME280;33780;51.034;7.120;2023-01-28T15:21:06;102084.44;;;3.22;61.39